Pagrindinis puslapis
METAR-TAF:

METAR-TAF

Oro uostai :

Ankaros oro uostas

Ankara Esenboğa, Turkija

platuma: 40-07N, ilguma: 032-59E, Aukštis: 953 m

Dabartinis oras

Ataskaita buvo paskelbta 48 minutes, ne 17:20 UTC
Vėjas 12 kt iš Šiaurės Vakarų
Temperatūra 1°C
Drėgmė 55%
Slėgis 1021 hPa
Matomumas 10 km arba daugiau
Išsisklaidę debesys ne aukštis 4000 ft

METAR: LTAC 281720Z 32012KT 9999 SCT040 01/M07 Q1021 BECMG VRB02KT

Laikas: 21:08 (18:08 UTC)

Prognozė

Ataskaita buvo paskelbta 1 valandą ir 28 minutes, ne 16:40 UTC
Prognozė galioja nuo 28 metu 18 UTC su 01 metu 18 UTC
Vėjas 2 kt nuo kintamojo kryptimis
Matomumas 10 km arba daugiau
Išsisklaidę debesys ne aukštis 4000 ft
Tapsmas
nuo 28 metu 19 UTC su 28 metu 21 UTC
Matomumas 10 km arba daugiau
nėra debesų žemiau 1500 m ir nėra kamuolinių lietaus debesų
Tapsmas
nuo 01 metu 06 UTC su 01 metu 08 UTC
Išsisklaidę debesys ne aukštis 4000 ft
Su prošvaistėmis ne aukštis 10000 ft

TAF: LTAC 281640Z 2818/0118 VRB02KT 9999 SCT040 BECMG 2819/2821 CAVOK BECMG 0106/0108 SCT040 BKN100

Orai ataskaitas ir orų prognozės (METAR, TAF).

turimą stotys yra geltonos ir raudonos taškus žemėlapyje.

Perkelti pele per norėdami pamatyti stoties vardą.

Tada spustelėkite, norėdami matyti oro stebėjimo ir prognozės.

Norėdami pakeisti žemėlapį: spustelėkite ant žalios mygtukų su juodo kryžiaus žemyn,; žalią mygtuką su brūkšneliu, jei norite nutolinti; arba žalių rodyklių gretimoms žemėlapius.


METAR-TAF: